Time;durP1;ratioP1;P1;durP2;ratioP2;P2;SDS_P1;SDS_P2;PMS_P1;PMS_P2;Temp;Humidity;BMP_temperature;BMP_pressure;BME280_temperature;BME280_humidity;BME280_pressure;Samples;Min_cycle;Max_cycle;Signal;HPM_P1;HPM_P2
2021/11/30 00:01:48;;;;;;;2.08;0.25;;;;;;;;;;5035016;28;20025;-64
2021/11/30 00:04:14;;;;;;;0.68;0.20;;;;;;;;;;5034572;28;20053;-63
2021/11/30 00:06:39;;;;;;;0.35;0.10;;;;;;;;;;5016896;28;20021;-62
2021/11/30 00:09:23;;;;;;;0.83;0.10;;;;;;;;;;5034634;28;20066;-62
2021/11/30 00:11:48;;;;;;;1.48;0.20;;;;;;;;;;5034712;28;20254;-64
2021/11/30 00:14:14;;;;;;;0.75;0.10;;;;;;;;;;5034500;28;20037;-63
2021/11/30 00:16:39;;;;;;;0.88;0.10;;;;;;;;;;5034617;28;20132;-63
2021/11/30 00:19:04;;;;;;;1.45;0.20;;;;;;;;;;5034571;28;20116;-62
2021/11/30 00:21:29;;;;;;;1.37;0.17;;;;;;;;;;5034785;28;20096;-63
2021/11/30 00:23:55;;;;;;;1.07;0.40;;;;;;;;;;5034521;28;20247;-63
2021/11/30 00:26:20;;;;;;;1.20;0.67;;;;;;;;;;5034204;28;20270;-63
2021/11/30 00:28:45;;;;;;;0.20;0.10;;;;;;;;;;5034357;28;20726;-62
2021/11/30 00:31:10;;;;;;;1.08;0.32;;;;;;;;;;5034193;28;20017;-63
2021/11/30 00:33:35;;;;;;;0.95;0.35;;;;;;;;;;5034320;28;20063;-63
2021/11/30 00:36:00;;;;;;;0.15;0.08;;;;;;;;;;5034330;28;20040;-63
2021/11/30 00:38:27;;;;;;;0.53;0.10;;;;;;;;;;5033924;28;20083;-62
2021/11/30 00:40:52;;;;;;;0.25;0.20;;;;;;;;;;5034278;28;20294;-62
2021/11/30 00:43:22;;;;;;;1.70;0.30;;;;;;;;;;5033994;28;20049;-63
2021/11/30 00:45:53;;;;;;;0.45;0.20;;;;;;;;;;5034085;28;20181;-63
2021/11/30 00:48:22;;;;;;;0.52;0.20;;;;;;;;;;5032824;28;20021;-63
2021/11/30 00:50:47;;;;;;;2.55;0.47;;;;;;;;;;5034053;28;20010;-62
2021/11/30 00:53:13;;;;;;;0.20;0.10;;;;;;;;;;5033908;28;20052;-63
2021/11/30 00:55:38;;;;;;;1.08;0.30;;;;;;;;;;5034054;28;20022;-63
2021/11/30 00:58:04;;;;;;;2.25;0.30;;;;;;;;;;5033733;28;20041;-63
2021/11/30 01:00:32;;;;;;;1.20;0.30;;;;;;;;;;5033664;28;20057;-62
2021/11/30 01:02:58;;;;;;;1.30;0.22;;;;;;;;;;5033692;28;20061;-63
2021/11/30 01:05:23;;;;;;;1.53;0.50;;;;;;;;;;5033628;28;20049;-63
2021/11/30 01:07:48;;;;;;;1.20;0.20;;;;;;;;;;5016050;28;20286;-63
2021/11/30 01:10:15;;;;;;;0.20;0.10;;;;;;;;;;5033422;28;20021;-63
2021/11/30 01:12:40;;;;;;;0.57;0.10;;;;;;;;;;5033582;28;20032;-62
2021/11/30 01:15:08;;;;;;;0.65;0.20;;;;;;;;;;5033509;28;20021;-63
2021/11/30 01:17:33;;;;;;;0.52;0.20;;;;;;;;;;5033424;28;20505;-63
2021/11/30 01:19:58;;;;;;;0.47;0.20;;;;;;;;;;5015701;28;20041;-63
2021/11/30 01:22:23;;;;;;;0.23;0.10;;;;;;;;;;5033114;28;20293;-62
2021/11/30 01:24:48;;;;;;;0.82;0.10;;;;;;;;;;5033227;28;20667;-63
2021/11/30 01:27:14;;;;;;;0.80;0.20;;;;;;;;;;5033138;28;20404;-64
2021/11/30 01:29:39;;;;;;;1.02;0.20;;;;;;;;;;5033660;28;20026;-63
2021/11/30 01:32:04;;;;;;;0.93;0.30;;;;;;;;;;5033135;28;20079;-63
2021/11/30 01:34:30;;;;;;;1.00;0.22;;;;;;;;;;5015278;28;20337;-63
2021/11/30 01:36:55;;;;;;;1.27;0.28;;;;;;;;;;5033242;28;20026;-65
2021/11/30 01:39:21;;;;;;;1.83;0.38;;;;;;;;;;5032890;28;20109;-63
2021/11/30 01:41:47;;;;;;;0.90;0.20;;;;;;;;;;5033360;28;20416;-64
2021/11/30 01:44:27;;;;;;;0.85;0.25;;;;;;;;;;5032822;28;20473;-63
2021/11/30 01:49:34;;;;;;;1.13;0.20;;;;;;;;;;5033078;28;20018;-64
2021/11/30 01:51:59;;;;;;;0.38;0.22;;;;;;;;;;5032889;28;20052;-63
2021/11/30 01:54:24;;;;;;;0.90;0.10;;;;;;;;;;5032937;28;20045;-63
2021/11/30 01:56:50;;;;;;;0.98;0.32;;;;;;;;;;5032872;28;20480;-62
2021/11/30 01:59:15;;;;;;;0.15;0.10;;;;;;;;;;5032212;28;20029;-64
2021/11/30 02:01:40;;;;;;;1.38;0.22;;;;;;;;;;5044429;23;20432;-63
2021/11/30 02:04:06;;;;;;;0.55;0.20;;;;;;;;;;5052382;28;20132;-62
2021/11/30 02:06:31;;;;;;;0.63;0.20;;;;;;;;;;5052351;28;20373;-62
2021/11/30 02:08:56;;;;;;;2.20;0.30;;;;;;;;;;5052469;28;20261;-63
2021/11/30 02:11:21;;;;;;;0.60;0.07;;;;;;;;;;5052343;28;20254;-63
2021/11/30 02:13:46;;;;;;;0.70;0.15;;;;;;;;;;5052492;28;20638;-63
2021/11/30 02:16:12;;;;;;;1.35;0.20;;;;;;;;;;5052213;28;20520;-63
2021/11/30 02:18:42;;;;;;;0.90;0.40;;;;;;;;;;5052197;28;20021;-63
2021/11/30 02:21:08;;;;;;;0.63;0.20;;;;;;;;;;5052194;28;20029;-63
2021/11/30 02:25:59;;;;;;;1.17;0.80;;;;;;;;;;5052427;28;20021;-62
2021/11/30 02:28:25;;;;;;;1.75;0.22;;;;;;;;;;5052000;28;20021;-63
2021/11/30 02:30:50;;;;;;;1.23;0.50;;;;;;;;;;5052309;28;20067;-63
2021/11/30 02:33:15;;;;;;;0.50;0.10;;;;;;;;;;5052061;28;20392;-63
2021/11/30 02:35:40;;;;;;;1.30;0.20;;;;;;;;;;5052535;28;20013;-62
2021/11/30 02:38:08;;;;;;;0.40;0.35;;;;;;;;;;5051907;28;20024;-63
2021/11/30 02:40:34;;;;;;;1.98;0.30;;;;;;;;;;5051940;28;20025;-63
2021/11/30 02:42:59;;;;;;;0.77;0.20;;;;;;;;;;5052167;28;20021;-63
2021/11/30 02:45:24;;;;;;;1.23;0.33;;;;;;;;;;5051953;28;20383;-62
2021/11/30 02:47:49;;;;;;;1.67;0.40;;;;;;;;;;5051942;28;20313;-63
2021/11/30 02:50:15;;;;;;;0.13;0.10;;;;;;;;;;5051808;28;20308;-63
2021/11/30 02:52:40;;;;;;;0.87;0.20;;;;;;;;;;5052028;28;20425;-63
2021/11/30 02:55:05;;;;;;;1.03;0.30;;;;;;;;;;5051912;28;20332;-62
2021/11/30 02:57:31;;;;;;;1.42;0.28;;;;;;;;;;5051771;28;20295;-62
2021/11/30 02:59:56;;;;;;;0.30;0.20;;;;;;;;;;5051785;28;20033;-63
2021/11/30 03:02:22;;;;;;;1.70;0.65;;;;;;;;;;5051570;28;20470;-62
2021/11/30 03:04:49;;;;;;;0.35;0.10;;;;;;;;;;5051864;28;20502;-62
2021/11/30 03:07:16;;;;;;;0.60;0.10;;;;;;;;;;5051644;28;20057;-62
2021/11/30 03:09:41;;;;;;;1.08;0.38;;;;;;;;;;5051954;28;20021;-63
2021/11/30 03:12:07;;;;;;;1.02;0.30;;;;;;;;;;5053481;28;20028;-62
2021/11/30 03:14:33;;;;;;;1.70;0.30;;;;;;;;;;5055523;28;20019;-62
2021/11/30 03:16:58;;;;;;;2.22;0.17;;;;;;;;;;5055784;28;20017;-62
2021/11/30 03:19:25;;;;;;;0.30;0.10;;;;;;;;;;5055500;28;20036;-63
2021/11/30 03:21:50;;;;;;;1.70;0.28;;;;;;;;;;5055641;28;20025;-63
2021/11/30 03:24:15;;;;;;;3.78;0.88;;;;;;;;;;5055707;28;20170;-62
2021/11/30 03:26:41;;;;;;;0.43;0.10;;;;;;;;;;5055413;28;20468;-62
2021/11/30 03:29:06;;;;;;;2.47;0.43;;;;;;;;;;5055431;28;20017;-63
2021/11/30 03:33:59;;;;;;;1.55;0.47;;;;;;;;;;5055406;28;20748;-63
2021/11/30 03:34:21;;;;;;;1.02;0.15;;;;;;;;;;5044172;28;20502;-62
2021/11/30 03:36:47;;;;;;;1.67;0.13;;;;;;;;;;5037788;28;20021;-63
2021/11/30 03:39:14;;;;;;;1.83;0.50;;;;;;;;;;5055110;28;20372;-63
2021/11/30 03:41:40;;;;;;;1.52;0.28;;;;;;;;;;5055412;28;20403;-63
2021/11/30 03:44:07;;;;;;;1.17;0.20;;;;;;;;;;5055125;28;20027;-62
2021/11/30 03:46:32;;;;;;;0.50;0.20;;;;;;;;;;5055034;28;20021;-63
2021/11/30 03:48:59;;;;;;;1.42;0.28;;;;;;;;;;5055207;28;20028;-63
2021/11/30 03:51:24;;;;;;;0.50;0.25;;;;;;;;;;5054850;28;20009;-63
2021/11/30 03:53:49;;;;;;;1.63;0.20;;;;;;;;;;5054969;28;20461;-64
2021/11/30 03:56:15;;;;;;;1.03;0.10;;;;;;;;;;5036840;28;20025;-62
2021/11/30 03:58:40;;;;;;;0.47;0.22;;;;;;;;;;5054997;28;20250;-63
2021/11/30 04:01:05;;;;;;;2.38;0.25;;;;;;;;;;5055197;28;20028;-63
2021/11/30 04:03:33;;;;;;;0.93;0.30;;;;;;;;;;5054721;28;20080;-63
2021/11/30 04:05:58;;;;;;;1.55;0.50;;;;;;;;;;5054628;28;20257;-62
2021/11/30 04:08:23;;;;;;;1.42;0.40;;;;;;;;;;5054705;28;20018;-63
2021/11/30 04:10:49;;;;;;;1.00;0.40;;;;;;;;;;5054777;28;20032;-62
2021/11/30 04:13:14;;;;;;;0.50;0.27;;;;;;;;;;5054569;28;20249;-63
2021/11/30 04:15:39;;;;;;;1.33;0.10;;;;;;;;;;5054710;28;20836;-62
2021/11/30 04:18:04;;;;;;;1.65;0.57;;;;;;;;;;5054426;28;20246;-63
2021/11/30 04:20:30;;;;;;;1.08;0.10;;;;;;;;;;5036558;28;20017;-63
2021/11/30 04:22:55;;;;;;;0.65;0.10;;;;;;;;;;5036629;28;20044;-63
2021/11/30 04:25:20;;;;;;;0.28;0.10;;;;;;;;;;5036493;28;20027;-62
2021/11/30 04:27:45;;;;;;;0.73;0.20;;;;;;;;;;5054330;28;20116;-62
2021/11/30 04:30:11;;;;;;;1.08;0.10;;;;;;;;;;5054131;28;20056;-63
2021/11/30 04:32:36;;;;;;;1.17;0.30;;;;;;;;;;5054253;28;20021;-63
2021/11/30 04:35:02;;;;;;;0.68;0.13;;;;;;;;;;5054384;28;20100;-63
2021/11/30 04:37:27;;;;;;;0.40;0.20;;;;;;;;;;5054202;28;20025;-63
2021/11/30 04:39:52;;;;;;;0.50;0.20;;;;;;;;;;5054405;28;20064;-64
2021/11/30 04:42:20;;;;;;;0.32;0.10;;;;;;;;;;5036149;28;20751;-63
2021/11/30 04:44:54;;;;;;;1.33;0.50;;;;;;;;;;5054114;28;20368;-62
2021/11/30 04:47:19;;;;;;;1.08;0.30;;;;;;;;;;5053729;28;20104;-63
2021/11/30 04:52:18;;;;;;;1.20;0.20;;;;;;;;;;5054140;28;20048;-63
2021/11/30 04:54:43;;;;;;;0.50;0.10;;;;;;;;;;5054238;28;20059;-62
2021/11/30 04:57:09;;;;;;;0.60;0.20;;;;;;;;;;5053794;28;20100;-63
2021/11/30 04:59:34;;;;;;;1.08;0.17;;;;;;;;;;5054165;28;20060;-63
2021/11/30 05:01:59;;;;;;;1.60;0.47;;;;;;;;;;5053613;28;20041;-63
2021/11/30 05:04:24;;;;;;;2.22;0.43;;;;;;;;;;5053348;28;20024;-62
2021/11/30 05:06:50;;;;;;;1.00;0.20;;;;;;;;;;5053564;28;20033;-62
2021/11/30 05:09:15;;;;;;;1.65;0.20;;;;;;;;;;5053450;28;20050;-63
2021/11/30 05:11:40;;;;;;;0.30;0.15;;;;;;;;;;5053641;28;20013;-62
2021/11/30 05:14:05;;;;;;;0.45;0.10;;;;;;;;;;5053371;28;20070;-62
2021/11/30 05:16:31;;;;;;;0.67;0.20;;;;;;;;;;5053419;28;20361;-62
2021/11/30 05:18:56;;;;;;;1.38;0.20;;;;;;;;;;5053483;28;20292;-63
2021/11/30 05:21:22;;;;;;;0.37;0.17;;;;;;;;;;5053301;28;20464;-64
2021/11/30 05:23:47;;;;;;;0.32;0.30;;;;;;;;;;5053310;28;20249;-63
2021/11/30 05:26:13;;;;;;;0.95;0.47;;;;;;;;;;5052968;28;20222;-64
2021/11/30 05:28:40;;;;;;;0.60;0.22;;;;;;;;;;5053247;28;20063;-64
2021/11/30 05:31:06;;;;;;;0.57;0.20;;;;;;;;;;5035300;28;20009;-63
2021/11/30 05:33:31;;;;;;;0.30;0.22;;;;;;;;;;5053071;28;20036;-62
2021/11/30 05:35:57;;;;;;;1.13;0.32;;;;;;;;;;5052571;28;20448;-63
2021/11/30 05:38:22;;;;;;;0.38;0.03;;;;;;;;;;5052954;28;20021;-63
2021/11/30 05:40:47;;;;;;;0.33;0.10;;;;;;;;;;5033239;28;20435;-63
2021/11/30 05:43:13;;;;;;;0.57;0.05;;;;;;;;;;5032873;28;20255;-63
2021/11/30 05:45:38;;;;;;;1.08;0.20;;;;;;;;;;5033037;28;20017;-63
2021/11/30 05:48:03;;;;;;;0.45;0.20;;;;;;;;;;5032798;28;20017;-63
2021/11/30 05:50:29;;;;;;;1.67;0.20;;;;;;;;;;5033066;28;20388;-63
2021/11/30 05:52:54;;;;;;;0.30;0.10;;;;;;;;;;5033067;28;20104;-62
2021/11/30 05:55:19;;;;;;;0.50;0.10;;;;;;;;;;5032644;28;20254;-63
2021/11/30 05:57:44;;;;;;;0.82;0.32;;;;;;;;;;5032710;28;20243;-63
2021/11/30 06:00:10;;;;;;;1.23;0.20;;;;;;;;;;5032463;28;20079;-63
2021/11/30 06:02:59;;;;;;;1.73;0.40;;;;;;;;;;5032503;28;20665;-63
2021/11/30 06:05:25;;;;;;;1.20;0.22;;;;;;;;;;5032557;28;20021;-63
2021/11/30 06:07:51;;;;;;;0.60;0.10;;;;;;;;;;5032584;28;20067;-63
2021/11/30 06:10:16;;;;;;;0.57;0.28;;;;;;;;;;5032409;28;20096;-63
2021/11/30 06:12:41;;;;;;;0.57;0.10;;;;;;;;;;5032564;28;20055;-62
2021/11/30 06:15:07;;;;;;;0.45;0.10;;;;;;;;;;5032325;28;20669;-63
2021/11/30 06:17:32;;;;;;;1.17;0.10;;;;;;;;;;5032485;28;20025;-64
2021/11/30 06:19:57;;;;;;;1.33;0.10;;;;;;;;;;5032371;28;20045;-63
2021/11/30 06:22:22;;;;;;;0.53;0.10;;;;;;;;;;5032332;28;20044;-63
2021/11/30 06:24:48;;;;;;;1.23;0.40;;;;;;;;;;5032520;28;20487;-63
2021/11/30 06:27:13;;;;;;;0.90;0.35;;;;;;;;;;5032180;28;20036;-63
2021/11/30 06:29:38;;;;;;;0.85;0.20;;;;;;;;;;5032436;28;20116;-63
2021/11/30 06:32:04;;;;;;;1.38;0.13;;;;;;;;;;5032111;28;20026;-62
2021/11/30 06:34:29;;;;;;;0.15;0.08;;;;;;;;;;5032020;28;20060;-63
2021/11/30 06:36:54;;;;;;;0.63;0.10;;;;;;;;;;5032327;28;20033;-63
2021/11/30 06:39:19;;;;;;;1.97;0.30;;;;;;;;;;5039715;28;20013;-63
2021/11/30 06:41:44;;;;;;;0.40;0.10;;;;;;;;;;5052142;28;20281;-62
2021/11/30 06:44:09;;;;;;;1.27;0.30;;;;;;;;;;5051037;28;20598;-63
2021/11/30 06:46:35;;;;;;;1.00;0.20;;;;;;;;;;5051251;28;20379;-63
2021/11/30 06:49:00;;;;;;;0.50;0.20;;;;;;;;;;5052015;28;20024;-64
2021/11/30 06:51:26;;;;;;;0.77;0.15;;;;;;;;;;5051762;28;20055;-62
2021/11/30 06:53:51;;;;;;;0.20;0.08;;;;;;;;;;5052022;28;20021;-63
2021/11/30 06:56:16;;;;;;;1.80;0.10;;;;;;;;;;5051791;28;20065;-63
2021/11/30 06:58:41;;;;;;;0.53;0.10;;;;;;;;;;5051989;28;20063;-62
2021/11/30 07:01:08;;;;;;;0.60;0.20;;;;;;;;;;5051909;28;20246;-62
2021/11/30 07:03:34;;;;;;;1.65;0.38;;;;;;;;;;5051935;28;20285;-62
2021/11/30 07:06:08;;;;;;;1.27;0.13;;;;;;;;;;5051787;28;20021;-63
2021/11/30 07:08:50;;;;;;;0.63;0.20;;;;;;;;;;5051715;28;20017;-63
2021/11/30 07:11:20;;;;;;;0.43;0.10;;;;;;;;;;5051877;28;20017;-63
2021/11/30 07:13:46;;;;;;;1.80;0.10;;;;;;;;;;5051813;28;20013;-63
2021/11/30 07:16:11;;;;;;;0.70;0.10;;;;;;;;;;5051535;28;20066;-63
2021/11/30 07:18:36;;;;;;;0.93;0.30;;;;;;;;;;5051735;28;20021;-63
2021/11/30 07:21:02;;;;;;;0.38;0.30;;;;;;;;;;5051801;28;20712;-63
2021/11/30 07:23:29;;;;;;;0.55;0.20;;;;;;;;;;5051699;28;20025;-62
2021/11/30 07:25:54;;;;;;;0.65;0.10;;;;;;;;;;5051906;28;20027;-63
2021/11/30 07:28:22;;;;;;;0.73;0.38;;;;;;;;;;5051519;28;20017;-63
2021/11/30 07:30:47;;;;;;;1.30;0.30;;;;;;;;;;5051611;28;20009;-63
2021/11/30 07:33:12;;;;;;;1.80;0.75;;;;;;;;;;5051636;28;20009;-62
2021/11/30 07:35:39;;;;;;;0.50;0.20;;;;;;;;;;5051650;28;20044;-63
2021/11/30 07:38:04;;;;;;;1.25;0.30;;;;;;;;;;5051444;28;20025;-63
2021/11/30 07:40:29;;;;;;;0.40;0.10;;;;;;;;;;5051372;28;20104;-63
2021/11/30 07:42:54;;;;;;;1.58;0.25;;;;;;;;;;5051887;28;20725;-62
2021/11/30 07:45:20;;;;;;;0.37;0.17;;;;;;;;;;5051315;28;20033;-63
2021/11/30 07:47:45;;;;;;;0.65;0.10;;;;;;;;;;5033539;28;20269;-63
2021/11/30 07:50:11;;;;;;;0.65;0.20;;;;;;;;;;5051109;28;20017;-63
2021/11/30 07:52:43;;;;;;;2.08;0.40;;;;;;;;;;5033787;28;20024;-62
2021/11/30 07:55:09;;;;;;;0.15;0.10;;;;;;;;;;5051274;28;20010;-62
2021/11/30 07:57:35;;;;;;;0.70;0.20;;;;;;;;;;5052390;28;20415;-63
2021/11/30 08:00:00;;;;;;;0.65;0.10;;;;;;;;;;5054879;28;20017;-63
2021/11/30 08:02:25;;;;;;;0.30;0.10;;;;;;;;;;5054681;28;20053;-63
2021/11/30 08:04:51;;;;;;;1.20;0.30;;;;;;;;;;5054884;28;20289;-63
2021/11/30 08:07:17;;;;;;;0.38;0.10;;;;;;;;;;5054422;28;20057;-64
2021/11/30 08:09:46;;;;;;;1.73;0.30;;;;;;;;;;5054811;28;20049;-63
2021/11/30 08:12:13;;;;;;;2.15;0.40;;;;;;;;;;5054530;28;20376;-62
2021/11/30 08:14:38;;;;;;;0.22;0.10;;;;;;;;;;5054658;28;20092;-62
2021/11/30 08:17:06;;;;;;;0.32;0.10;;;;;;;;;;5054959;28;20120;-63
2021/11/30 08:19:31;;;;;;;0.63;0.10;;;;;;;;;;5053987;28;20025;-63
2021/11/30 08:21:56;;;;;;;0.65;0.10;;;;;;;;;;5054215;28;20031;-63
2021/11/30 08:24:21;;;;;;;0.70;0.20;;;;;;;;;;5054089;28;20777;-62
2021/11/30 08:26:46;;;;;;;1.50;0.28;;;;;;;;;;5054193;28;20047;-64
2021/11/30 08:29:11;;;;;;;0.32;0.20;;;;;;;;;;5053835;28;20032;-63
2021/11/30 08:31:37;;;;;;;0.87;0.10;;;;;;;;;;5054470;28;20365;-63
2021/11/30 08:34:03;;;;;;;0.43;0.17;;;;;;;;;;5054157;28;20333;-62
2021/11/30 08:36:28;;;;;;;0.25;0.10;;;;;;;;;;5053574;28;20100;-64
2021/11/30 08:38:53;;;;;;;0.60;0.20;;;;;;;;;;5053833;28;20035;-63
2021/11/30 08:41:20;;;;;;;0.95;0.17;;;;;;;;;;5053572;28;20108;-63
2021/11/30 08:43:46;;;;;;;1.25;0.20;;;;;;;;;;5054126;28;20044;-63
2021/11/30 08:46:11;;;;;;;1.25;0.20;;;;;;;;;;5053586;28;20472;-62
2021/11/30 08:48:36;;;;;;;1.40;0.17;;;;;;;;;;5054049;28;20107;-63
2021/11/30 08:51:02;;;;;;;0.43;0.13;;;;;;;;;;5054102;28;20610;-63
2021/11/30 08:53:27;;;;;;;0.82;0.30;;;;;;;;;;5053716;28;20262;-64
2021/11/30 08:55:52;;;;;;;0.63;0.20;;;;;;;;;;5053892;28;20457;-63
2021/11/30 08:58:17;;;;;;;0.70;0.10;;;;;;;;;;5053545;28;20387;-63
2021/11/30 09:00:43;;;;;;;0.30;0.20;;;;;;;;;;5053760;28;20039;-63
2021/11/30 09:03:08;;;;;;;0.40;0.10;;;;;;;;;;5053552;28;20270;-63
2021/11/30 09:05:33;;;;;;;0.30;0.10;;;;;;;;;;5053708;28;20087;-62
2021/11/30 09:07:59;;;;;;;1.20;0.20;;;;;;;;;;5053596;28;20079;-63
2021/11/30 09:10:25;;;;;;;1.30;0.20;;;;;;;;;;5052523;28;20036;-63
2021/11/30 09:12:50;;;;;;;1.38;0.15;;;;;;;;;;5053561;28;20317;-63
2021/11/30 09:15:16;;;;;;;0.63;0.20;;;;;;;;;;5052729;28;20025;-63
2021/11/30 09:17:42;;;;;;;0.68;0.17;;;;;;;;;;5053174;28;20402;-63
2021/11/30 09:20:08;;;;;;;0.85;0.20;;;;;;;;;;5035262;28;20468;-63
2021/11/30 09:22:33;;;;;;;0.25;0.17;;;;;;;;;;5053147;28;20060;-63
2021/11/30 09:24:59;;;;;;;2.25;0.30;;;;;;;;;;5053381;28;20120;-64
2021/11/30 09:27:25;;;;;;;0.20;0.00;;;;;;;;;;5053092;28;20032;-62
2021/11/30 09:29:51;;;;;;;0.40;0.17;;;;;;;;;;5052635;28;20040;-63
2021/11/30 09:32:16;;;;;;;0.63;0.30;;;;;;;;;;5053010;28;20024;-63
2021/11/30 09:34:41;;;;;;;0.80;0.40;;;;;;;;;;5053289;28;20017;-63
2021/11/30 09:37:08;;;;;;;1.07;0.20;;;;;;;;;;5035074;28;20036;-62
2021/11/30 09:39:34;;;;;;;2.38;0.40;;;;;;;;;;5053301;28;20250;-63
2021/11/30 09:41:59;;;;;;;0.82;0.28;;;;;;;;;;5052980;28;20518;-63
2021/11/30 09:44:24;;;;;;;1.90;0.25;;;;;;;;;;5052791;28;20057;-63
2021/11/30 09:46:50;;;;;;;2.17;0.47;;;;;;;;;;5052901;28;20033;-62
2021/11/30 09:49:15;;;;;;;0.25;0.10;;;;;;;;;;5052776;28;20071;-63
2021/11/30 09:51:40;;;;;;;1.30;0.30;;;;;;;;;;5053131;28;20021;-63
2021/11/30 09:54:05;;;;;;;1.42;0.50;;;;;;;;;;5052544;28;20013;-64
2021/11/30 09:56:31;;;;;;;0.32;0.10;;;;;;;;;;5050794;28;20020;-63
2021/11/30 09:58:56;;;;;;;0.65;0.30;;;;;;;;;;5051692;28;20113;-63
2021/11/30 10:01:21;;;;;;;0.10;0.00;;;;;;;;;;5052517;28;20747;-63
2021/11/30 10:03:46;;;;;;;1.95;0.85;;;;;;;;;;5053311;28;20021;-63
2021/11/30 10:06:12;;;;;;;0.70;0.20;;;;;;;;;;5052308;28;20047;-63
2021/11/30 10:08:39;;;;;;;0.35;0.10;;;;;;;;;;5052785;28;20032;-62
2021/11/30 10:11:06;;;;;;;0.77;0.13;;;;;;;;;;5052261;28;20048;-63
2021/11/30 10:13:33;;;;;;;1.02;0.20;;;;;;;;;;5052266;28;20009;-63
2021/11/30 10:16:01;;;;;;;0.50;0.22;;;;;;;;;;5052364;28;20005;-63
2021/11/30 10:18:40;;;;;;;2.10;0.30;;;;;;;;;;5052168;28;20013;-62
2021/11/30 10:21:07;;;;;;;1.65;0.30;;;;;;;;;;5052517;28;20032;-63
2021/11/30 10:23:45;;;;;;;0.80;0.25;;;;;;;;;;5052372;28;20071;-63
2021/11/30 10:26:10;;;;;;;0.30;0.20;;;;;;;;;;5052026;28;20084;-63
2021/11/30 10:28:35;;;;;;;1.37;0.37;;;;;;;;;;5052351;28;20025;-62
2021/11/30 10:31:00;;;;;;;0.27;0.10;;;;;;;;;;5034262;28;20635;-62
2021/11/30 10:33:27;;;;;;;0.60;0.10;;;;;;;;;;5055500;28;20254;-63
2021/11/30 10:35:56;;;;;;;0.17;0.10;;;;;;;;;;5061301;28;20324;-63
2021/11/30 10:38:42;;;;;;;0.13;0.13;;;;;;;;;;5072134;28;20051;-62
2021/11/30 10:41:21;;;;;;;0.80;0.20;;;;;;;;;;5035785;28;20037;-63
2021/11/30 10:44:00;;;;;;;0.70;0.17;;;;;;;;;;5052240;28;20525;-63
2021/11/30 10:46:27;;;;;;;0.52;0.20;;;;;;;;;;5033788;28;20035;-63
2021/11/30 10:48:52;;;;;;;0.52;0.20;;;;;;;;;;5052135;28;20029;-63
2021/11/30 10:51:18;;;;;;;0.65;0.13;;;;;;;;;;5051819;28;20071;-63
2021/11/30 10:53:44;;;;;;;0.93;0.20;;;;;;;;;;5052148;28;20021;-62
2021/11/30 10:56:10;;;;;;;0.25;0.10;;;;;;;;;;5051789;28;20032;-63
2021/11/30 10:58:39;;;;;;;0.73;0.25;;;;;;;;;;5052166;28;20055;-63
2021/11/30 11:01:12;;;;;;;1.48;0.30;;;;;;;;;;5051909;28;20104;-63
2021/11/30 11:03:37;;;;;;;0.80;0.30;;;;;;;;;;5051883;28;20101;-63
2021/11/30 11:08:47;;;;;;;0.38;0.20;;;;;;;;;;5051874;28;20345;-63
2021/11/30 11:11:17;;;;;;;0.82;0.20;;;;;;;;;;5050797;28;20045;-63
2021/11/30 11:13:42;;;;;;;1.45;0.40;;;;;;;;;;5051928;28;20022;-63
2021/11/30 11:16:22;;;;;;;1.80;0.10;;;;;;;;;;5051647;28;20067;-62
2021/11/30 11:18:49;;;;;;;1.85;0.30;;;;;;;;;;5051729;28;20461;-63
2021/11/30 11:21:15;;;;;;;1.00;0.40;;;;;;;;;;5051367;28;20059;-63
2021/11/30 11:23:44;;;;;;;0.80;0.10;;;;;;;;;;5051781;28;20425;-63
2021/11/30 11:26:28;;;;;;;2.10;0.20;;;;;;;;;;5051428;28;20021;-63
2021/11/30 11:28:53;;;;;;;0.47;0.10;;;;;;;;;;5050738;28;20029;-63
2021/11/30 11:31:20;;;;;;;1.05;0.10;;;;;;;;;;5051506;28;20053;-63
2021/11/30 11:33:45;;;;;;;1.17;0.15;;;;;;;;;;5054590;28;20413;-63
2021/11/30 11:36:10;;;;;;;0.57;0.10;;;;;;;;;;5055290;28;20023;-63
2021/11/30 11:38:35;;;;;;;0.80;0.20;;;;;;;;;;5055147;28;20020;-62
2021/11/30 11:41:01;;;;;;;0.57;0.20;;;;;;;;;;5055355;28;20013;-64
2021/11/30 11:43:26;;;;;;;0.90;0.20;;;;;;;;;;5055239;28;20388;-63
2021/11/30 11:45:53;;;;;;;0.43;0.10;;;;;;;;;;5055317;28;20021;-62
2021/11/30 11:48:19;;;;;;;1.02;0.22;;;;;;;;;;5054993;28;20021;-63
2021/11/30 11:50:51;;;;;;;1.17;0.20;;;;;;;;;;5055192;28;20434;-64
2021/11/30 11:53:20;;;;;;;1.17;0.25;;;;;;;;;;5054917;28;20032;-63
2021/11/30 11:56:05;;;;;;;0.47;0.10;;;;;;;;;;5055244;28;20072;-62
2021/11/30 11:58:30;;;;;;;0.73;0.10;;;;;;;;;;5054589;28;20495;-62
2021/11/30 12:00:58;;;;;;;0.70;0.20;;;;;;;;;;5053538;28;20120;-63
2021/11/30 12:03:43;;;;;;;0.20;0.20;;;;;;;;;;5053122;28;20045;-64
2021/11/30 12:06:21;;;;;;;0.80;0.17;;;;;;;;;;5047705;28;20042;-63
2021/11/30 12:09:05;;;;;;;0.80;0.20;;;;;;;;;;5053927;28;20383;-62
2021/11/30 12:11:37;;;;;;;0.70;0.40;;;;;;;;;;5053970;28;20111;-63
2021/11/30 12:14:09;;;;;;;0.47;0.20;;;;;;;;;;5054284;28;20025;-63
2021/11/30 12:16:53;;;;;;;0.63;0.20;;;;;;;;;;5047749;28;20040;-63
2021/11/30 12:19:25;;;;;;;1.33;0.30;;;;;;;;;;5054247;28;20031;-63
2021/11/30 12:21:50;;;;;;;0.30;0.10;;;;;;;;;;5040625;28;20021;-62
2021/11/30 12:24:29;;;;;;;0.40;0.10;;;;;;;;;;5055499;28;20021;-63
2021/11/30 12:26:55;;;;;;;0.40;0.15;;;;;;;;;;5064144;28;20061;-63
2021/11/30 12:29:20;;;;;;;0.75;0.30;;;;;;;;;;5054305;28;20499;-62
2021/11/30 12:31:46;;;;;;;0.95;0.20;;;;;;;;;;5067623;28;20100;-62
2021/11/30 12:34:11;;;;;;;1.55;0.47;;;;;;;;;;5057868;28;20029;-62
2021/11/30 12:36:41;;;;;;;1.42;0.17;;;;;;;;;;5036158;28;20028;-66
2021/11/30 12:39:10;;;;;;;1.67;0.30;;;;;;;;;;5054483;28;20088;-68
2021/11/30 12:41:38;;;;;;;1.08;0.20;;;;;;;;;;5054283;28;20058;-67
2021/11/30 12:44:06;;;;;;;1.17;0.28;;;;;;;;;;5052923;28;20020;-73
2021/11/30 12:46:36;;;;;;;1.45;0.10;;;;;;;;;;5053659;28;20040;-75
2021/11/30 12:49:03;;;;;;;2.08;0.40;;;;;;;;;;5053699;28;20021;-75
2021/11/30 12:51:35;;;;;;;0.73;0.20;;;;;;;;;;5054500;28;20385;-75
2021/11/30 12:54:02;;;;;;;1.35;0.10;;;;;;;;;;5052538;28;20490;-75
2021/11/30 12:56:48;;;;;;;0.55;0.10;;;;;;;;;;5053772;28;20013;-74
2021/11/30 12:59:14;;;;;;;0.95;0.20;;;;;;;;;;5053510;28;20016;-73
2021/11/30 13:01:39;;;;;;;0.80;0.10;;;;;;;;;;5053248;28;20052;-74
2021/11/30 13:04:23;;;;;;;1.65;0.10;;;;;;;;;;5046048;28;20021;-74
2021/11/30 13:07:07;;;;;;;0.40;0.28;;;;;;;;;;5053616;28;20513;-75
2021/11/30 13:09:42;;;;;;;1.10;0.20;;;;;;;;;;5035722;28;20027;-73
2021/11/30 13:12:11;;;;;;;0.80;0.10;;;;;;;;;;5055146;28;20108;-71
2021/11/30 13:14:37;;;;;;;2.40;0.15;;;;;;;;;;5051688;28;20012;-71
2021/11/30 13:17:02;;;;;;;0.38;0.10;;;;;;;;;;5053592;28;20021;-71
2021/11/30 13:19:36;;;;;;;0.25;0.10;;;;;;;;;;5052793;28;20406;-70
2021/11/30 13:22:02;;;;;;;0.32;0.22;;;;;;;;;;5052581;28;20472;-73
2021/11/30 13:24:44;;;;;;;0.52;0.10;;;;;;;;;;5053500;28;20361;-74
2021/11/30 13:27:09;;;;;;;0.52;0.13;;;;;;;;;;5052132;28;20416;-74
2021/11/30 13:29:34;;;;;;;2.80;0.40;;;;;;;;;;5052765;28;20268;-70
2021/11/30 13:32:00;;;;;;;0.43;0.03;;;;;;;;;;5052025;28;20270;-67
2021/11/30 13:34:25;;;;;;;2.72;0.28;;;;;;;;;;5060939;28;20388;-75
2021/11/30 13:36:51;;;;;;;0.63;0.10;;;;;;;;;;5056756;28;20066;-72
2021/11/30 13:39:16;;;;;;;0.93;0.10;;;;;;;;;;5051902;28;20043;-72
2021/11/30 13:41:41;;;;;;;3.33;0.17;;;;;;;;;;5053142;28;20341;-72
2021/11/30 13:44:06;;;;;;;3.42;0.10;;;;;;;;;;5052314;28;20029;-66
2021/11/30 13:46:36;;;;;;;0.65;0.20;;;;;;;;;;5051895;28;20028;-67
2021/11/30 13:49:03;;;;;;;2.10;0.40;;;;;;;;;;5052562;28;20372;-71
2021/11/30 13:51:55;;;;;;;1.77;0.10;;;;;;;;;;5052204;28;20017;-70
2021/11/30 13:54:21;;;;;;;2.72;0.60;;;;;;;;;;5048481;28;20037;-70
2021/11/30 13:59:52;;;;;;;5.63;0.60;;;;;;;;;;4981523;28;20272;-66
2021/11/30 14:02:17;;;;;;;0.50;0.20;;;;;;;;;;4989332;28;20049;-69
2021/11/30 14:04:43;;;;;;;1.43;0.50;;;;;;;;;;4981657;28;20272;-69
2021/11/30 14:07:08;;;;;;;1.73;0.20;;;;;;;;;;4986053;28;20342;-68
2021/11/30 14:09:35;;;;;;;0.70;0.13;;;;;;;;;;4987143;28;20284;-68
2021/11/30 14:12:06;;;;;;;1.65;0.30;;;;;;;;;;4985844;28;20306;-65
2021/11/30 14:14:33;;;;;;;2.38;0.30;;;;;;;;;;4979538;28;20548;-68
2021/11/30 14:17:00;;;;;;;0.50;0.28;;;;;;;;;;4989564;28;20038;-68
2021/11/30 14:19:34;;;;;;;0.85;0.35;;;;;;;;;;4974935;28;20034;-68
2021/11/30 14:22:01;;;;;;;0.60;0.10;;;;;;;;;;4975999;28;20115;-65
2021/11/30 14:24:26;;;;;;;1.25;0.20;;;;;;;;;;4981224;28;20093;-66
2021/11/30 14:26:52;;;;;;;1.20;0.30;;;;;;;;;;4986758;28;20014;-66
2021/11/30 14:29:21;;;;;;;1.33;0.22;;;;;;;;;;4986613;28;20181;-65
2021/11/30 14:31:51;;;;;;;0.75;0.10;;;;;;;;;;4988373;28;20402;-66
2021/11/30 14:34:16;;;;;;;2.40;0.17;;;;;;;;;;4992526;28;20513;-68
2021/11/30 14:36:42;;;;;;;0.68;0.35;;;;;;;;;;5032233;28;20033;-67
2021/11/30 14:39:23;;;;;;;1.70;0.20;;;;;;;;;;5036204;28;20024;-67
2021/11/30 14:41:49;;;;;;;0.95;0.10;;;;;;;;;;5032569;28;20021;-68
2021/11/30 14:44:28;;;;;;;1.65;0.20;;;;;;;;;;5048824;28;20040;-69
2021/11/30 14:46:54;;;;;;;0.63;0.13;;;;;;;;;;5049701;28;20515;-68
2021/11/30 14:49:19;;;;;;;0.85;0.10;;;;;;;;;;5050416;28;20021;-69
2021/11/30 14:51:44;;;;;;;0.73;0.25;;;;;;;;;;5052132;28;20029;-67
2021/11/30 14:54:11;;;;;;;0.20;0.10;;;;;;;;;;5051466;28;20387;-66
2021/11/30 14:56:44;;;;;;;0.05;0.05;;;;;;;;;;5051055;28;20028;-67